Time;durP1;ratioP1;P1;durP2;ratioP2;P2;SDS_P1;SDS_P2;PMS_P1;PMS_P2;Temp;Humidity;BMP_temperature;BMP_pressure;BME280_temperature;BME280_humidity;BME280_pressure;Samples;Min_cycle;Max_cycle;Signal;HPM_P1;HPM_P2
2024/01/31 00:02:36;;;;;;;;;14.50;11.75;;;;;7.69;48.14;102678.44;146621;658;46010;-69
2024/01/31 00:05:31;;;;;;;;;5.25;4.25;;;;;6.24;46.44;102419.78;146609;621;46016;-69
2024/01/31 00:08:43;;;;;;;;;8.00;8.00;;;;;7.69;47.73;102693.94;146616;637;46021;-69
2024/01/31 00:11:54;;;;;;;;;;;;;;;;;;;;;
2024/01/31 00:14:56;;;;;;;;;18.00;14.00;;;;;7.72;47.98;102702.88;146611;574;47010;-70
2024/01/31 00:18:29;;;;;;;;;8.75;6.50;;;;;5.27;48.52;102252.56;146610;617;46033;-70
2024/01/31 00:21:42;;;;;;;;;8.25;6.75;;;;;7.69;48.60;102686.19;146617;598;46020;-70
2024/01/31 00:24:39;;;;;;;;;5.25;4.00;;;;;7.69;46.83;102686.19;146617;666;46014;-69
2024/01/31 00:27:45;;;;;;;;;6.00;4.50;;;;;7.72;47.83;102683.87;146619;651;46020;-70
2024/01/31 00:30:56;;;;;;;;;8.00;8.00;;;;;7.74;47.90;102687.53;146613;753;47017;-69
2024/01/31 00:33:51;;;;;;;;;6.00;5.00;;;;;7.75;48.02;102694.50;146620;588;46020;-71
2024/01/31 00:36:43;;;;;;;;;10.75;7.50;;;;;7.78;48.74;102702.53;146616;597;46012;-69
2024/01/31 00:40:06;;;;;;;;;6.75;5.00;;;;;7.78;48.47;102698.28;146618;611;47020;-69
2024/01/31 00:43:02;;;;;;;;;5.00;4.00;;;;;7.76;48.80;102693.75;146616;631;47014;-66
2024/01/31 00:46:08;;;;;;;;;7.50;6.25;;;;;7.76;49.95;102692.09;146621;609;47010;-67
2024/01/31 00:49:22;;;;;;;;;10.75;7.75;;;;;5.08;50.61;102208.75;146620;608;46014;-67
2024/01/31 00:52:22;;;;;;;;;5.00;5.00;;;;;7.74;49.79;102678.09;146622;620;46010;-67
2024/01/31 00:55:26;;;;;;;;;4.75;4.25;;;;;7.73;50.46;102686.63;146617;565;47012;-67
2024/01/31 00:58:25;;;;;;;;;5.00;4.50;;;;;7.71;50.72;102682.09;146621;564;46020;-68
2024/01/31 01:01:32;;;;;;;;;6.75;4.25;;;;;7.71;52.09;102680.41;146619;664;46012;-68
2024/01/31 01:04:43;;;;;;;;;7.00;7.00;;;;;7.67;51.74;102679.97;146624;580;46012;-67
2024/01/31 01:07:45;;;;;;;;;5.00;4.00;;;;;7.64;51.13;102678.03;146618;596;46012;-68
2024/01/31 01:11:07;;;;;;;;;6.75;5.25;;;;;7.63;51.15;102673.59;146622;583;46010;-67
2024/01/31 01:14:06;;;;;;;;;3.25;3.00;;;;;7.61;50.62;102693.22;146620;589;46012;-69
2024/01/31 01:17:05;;;;;;;;;11.00;10.25;;;;;7.60;49.82;102696.53;146620;609;46020;-69
2024/01/31 01:20:11;;;;;;;;;4.00;4.00;;;;;4.91;50.67;102218.12;146618;608;46012;-69
2024/01/31 01:23:16;;;;;;;;;4.50;4.00;;;;;7.61;51.27;102690.63;146622;608;46010;-69
2024/01/31 01:26:18;;;;;;;;;5.00;4.00;;;;;7.64;51.83;102691.84;146617;635;46016;-68
2024/01/31 01:29:37;;;;;;;;;;;;;;;;;;;;;
2024/01/31 01:32:34;;;;;;;;;3.00;3.00;;;;;7.65;50.02;102677.25;146618;602;47012;-69
2024/01/31 01:35:30;;;;;;;;;5.75;5.25;;;;;7.64;51.35;102671.19;146622;638;46020;-69
2024/01/31 01:38:41;;;;;;;;;6.00;5.00;;;;;7.63;51.25;102664.22;146616;564;46016;-69
2024/01/31 01:41:57;;;;;;;;;6.75;6.75;;;;;7.66;50.99;102667.81;146623;634;46010;-69
2024/01/31 01:44:53;;;;;;;;;5.50;5.25;;;;;7.67;50.04;102678.31;146620;575;46013;-69
2024/01/31 01:48:04;;;;;;;;;5.25;4.75;;;;;6.24;50.34;102427.50;146642;595;45010;-69
2024/01/31 01:51:02;;;;;;;;;6.75;6.75;;;;;7.69;50.33;102679.34;146636;614;45913;-68
2024/01/31 01:54:01;;;;;;;;;8.00;7.00;;;;;7.70;50.40;102669.94;146636;596;45010;-70
2024/01/31 01:57:02;;;;;;;;;9.75;8.75;;;;;7.74;51.43;102669.47;146632;634;46913;-68
2024/01/31 01:59:55;;;;;;;;;9.75;6.50;;;;;7.70;51.03;102657.03;146637;569;45021;-66
2024/01/31 02:02:58;;;;;;;;;5.00;4.00;;;;;7.68;50.91;102658.56;146632;599;46012;-66
2024/01/31 02:06:07;;;;;;;;;;;;;;;;;;;;;
2024/01/31 02:09:10;;;;;;;;;3.75;3.75;;;;;7.62;50.47;102662.38;146634;582;45913;-68
2024/01/31 02:12:10;;;;;;;;;5.75;4.00;;;;;7.61;49.22;102652.81;146636;572;45010;-66
2024/01/31 02:15:10;;;;;;;;;2.25;1.75;;;;;7.61;48.91;102641.59;146636;564;45016;-67
2024/01/31 02:18:26;;;;;;;;;1.00;1.00;;;;;7.62;49.41;102651.13;146635;609;46010;-68
2024/01/31 02:21:24;;;;;;;;;3.50;3.50;;;;;7.64;49.35;102650.53;146636;669;45016;-66
2024/01/31 02:24:33;;;;;;;;;4.25;3.75;;;;;5.03;49.76;102180.75;146633;659;46010;-66
2024/01/31 02:27:28;;;;;;;;;2.00;2.00;;;;;7.61;49.39;102644.16;146632;601;46913;-66
2024/01/31 02:30:25;;;;;;;;;5.00;1.75;;;;;7.56;49.42;102629.91;146636;702;46010;-67
2024/01/31 02:33:35;;;;;;;;;;;;;;;;;;;;;
2024/01/31 02:36:30;;;;;;;;;3.25;3.00;;;;;7.62;49.73;102646.87;146636;606;45013;-68
2024/01/31 02:39:22;;;;;;;;;2.00;2.00;;;;;7.64;49.94;102647.03;146629;609;46016;-70
2024/01/31 02:42:17;;;;;;;;;2.50;2.50;;;;;7.67;50.06;102652.50;146632;572;45030;-73
2024/01/31 02:45:20;;;;;;;;;3.75;3.00;;;;;7.69;50.77;102637.13;146630;569;46012;-73
2024/01/31 02:48:17;;;;;;;;;4.00;2.50;;;;;7.66;50.87;102637.75;146622;586;46020;-72
2024/01/31 02:51:09;;;;;;;;;2.25;2.00;;;;;7.64;50.98;102639.28;146617;694;46017;-72
2024/01/31 02:54:04;;;;;;;;;4.00;2.00;;;;;7.61;49.20;102647.66;146623;566;46010;-72
2024/01/31 02:57:04;;;;;;;;;0.75;0.75;;;;;7.56;48.59;102643.72;146619;671;46012;-72
2024/01/31 03:00:21;;;;;;;;;2.00;2.00;;;;;4.59;49.59;102123.41;146619;579;47010;-73
2024/01/31 03:03:25;;;;;;;;;3.50;3.00;;;;;7.56;50.24;102651.47;146606;579;47913;-74
2024/01/31 03:06:22;;;;;;;;;2.25;2.00;;;;;7.55;49.88;102657.41;146610;586;46021;-70
2024/01/31 03:09:36;;;;;;;;;2.25;2.25;;;;;7.53;50.04;102658.00;146616;566;46016;-70
2024/01/31 03:12:42;;;;;;;;;2.25;2.00;;;;;7.47;49.48;102640.28;146615;602;46029;-70
2024/01/31 03:15:49;;;;;;;;;3.00;2.50;;;;;7.48;49.53;102646.38;146618;584;46016;-70
2024/01/31 03:18:59;;;;;;;;;2.75;2.75;;;;;7.48;49.31;102651.53;146621;634;46020;-71
2024/01/31 03:22:05;;;;;;;;;4.00;2.75;;;;;7.47;49.68;102660.91;146618;576;46017;-71
2024/01/31 03:25:01;;;;;;;;;3.00;3.00;;;;;7.45;49.25;102661.56;146622;628;46010;-69
2024/01/31 03:28:00;;;;;;;;;3.75;2.25;;;;;7.46;49.07;102666.84;146617;570;46017;-70
2024/01/31 03:31:12;;;;;;;;;4.25;3.00;;;;;5.61;49.47;102327.84;146621;602;47012;-70
2024/01/31 03:34:20;;;;;;;;;4.00;4.00;;;;;7.40;49.52;102662.03;146617;615;46017;-71
2024/01/31 03:37:15;;;;;;;;;2.00;2.00;;;;;7.37;49.36;102653.97;146613;646;47012;-71
2024/01/31 03:40:18;;;;;;;;;3.00;2.75;;;;;7.36;49.30;102659.00;146615;595;47913;-71
2024/01/31 03:43:15;;;;;;;;;5.75;5.25;;;;;7.38;48.74;102657.47;146623;599;46010;-71
2024/01/31 03:46:19;;;;;;;;;1.00;1.00;;;;;7.40;48.65;102669.75;146616;603;46016;-71
2024/01/31 03:49:15;;;;;;;;;4.00;4.00;;;;;7.45;48.34;102671.88;146620;622;46029;-68
2024/01/31 03:52:32;;;;;;;;;;;;;;;;;;;;;
2024/01/31 03:55:34;;;;;;;;;6.75;4.75;;;;;7.46;49.51;102671.13;146620;597;46010;-69
2024/01/31 03:58:51;;;;;;;;;3.00;3.00;;;;;7.44;49.58;102660.63;146615;682;47012;-68
2024/01/31 04:02:14;;;;;;;;;4.00;2.25;;;;;4.65;48.60;102175.38;146621;690;46020;-68
2024/01/31 04:05:27;;;;;;;;;3.00;2.00;;;;;7.45;48.27;102677.97;146612;670;46017;-68
2024/01/31 04:08:29;;;;;;;;;4.00;3.00;;;;;7.47;48.31;102679.00;146612;624;46020;-69
2024/01/31 04:11:34;;;;;;;;;4.00;4.00;;;;;7.48;47.23;102682.50;146611;634;46016;-68
2024/01/31 04:14:26;;;;;;;;;3.00;2.00;;;;;7.50;47.42;102687.03;146616;570;47010;-68
2024/01/31 04:17:31;;;;;;;;;2.00;1.50;;;;;7.51;46.65;102690.53;146615;590;46016;-71
2024/01/31 04:20:26;;;;;;;;;1.00;1.00;;;;;7.52;46.87;102684.59;146619;601;46021;-69
2024/01/31 04:23:23;;;;;;;;;3.00;1.25;;;;;7.53;46.64;102682.16;146616;616;46016;-67
2024/01/31 04:26:30;;;;;;;;;3.25;1.00;;;;;7.54;45.99;102686.56;146619;584;46010;-69
2024/01/31 04:29:30;;;;;;;;;7.25;4.00;;;;;7.55;46.58;102690.97;146614;614;46016;-70
2024/01/31 04:32:35;;;;;;;;;2.00;1.00;;;;;7.52;46.69;102682.94;146621;587;47010;-69
2024/01/31 04:35:48;;;;;;;;;2.00;2.00;;;;;6.17;47.34;102444.81;146618;671;46012;-68
2024/01/31 04:38:53;;;;;;;;;2.00;2.00;;;;;7.55;46.83;102682.31;146617;577;46010;-67
2024/01/31 04:42:11;;;;;;;;;1.00;1.00;;;;;7.57;46.07;102680.75;146619;572;46031;-68
2024/01/31 04:45:38;;;;;;;;;;;;;;;;;;;;;
2024/01/31 04:49:00;;;;;;;;;3.50;2.75;;;;;7.59;46.23;102689.56;146634;591;45915;-68
2024/01/31 04:52:02;;;;;;;;;6.00;4.75;;;;;7.57;46.40;102675.59;146634;590;46020;-67
2024/01/31 04:55:09;;;;;;;;;2.00;2.00;;;;;7.57;47.22;102692.03;146631;582;48012;-69
2024/01/31 04:58:13;;;;;;;;;2.75;2.50;;;;;7.56;46.05;102691.88;146635;577;46012;-70
2024/01/31 05:01:14;;;;;;;;;1.00;1.00;;;;;7.54;46.63;102703.72;146634;573;45012;-69
2024/01/31 05:04:32;;;;;;;;;2.00;1.00;;;;;7.52;47.57;102701.00;146637;564;45011;-71
2024/01/31 05:07:40;;;;;;;;;2.00;2.00;;;;;7.46;47.37;102694.34;146633;647;45016;-70
2024/01/31 05:10:54;;;;;;;;;3.75;2.00;;;;;7.44;47.78;102703.59;146629;579;46010;-70
2024/01/31 05:13:59;;;;;;;;;5.50;5.00;;;;;7.40;47.01;102708.47;146629;589;47014;-70
2024/01/31 05:17:04;;;;;;;;;4.00;2.25;;;;;7.40;47.46;102711.06;146638;738;45020;-71
2024/01/31 05:20:07;;;;;;;;;3.00;2.00;;;;;7.41;47.50;102709.38;146631;566;47014;-70
2024/01/31 05:23:29;;;;;;;;;;;;;;;;;;;;;
2024/01/31 05:26:33;;;;;;;;;3.25;2.00;;;;;7.38;48.63;102733.25;146632;654;46012;-77
2024/01/31 05:29:48;;;;;;;;;1.00;1.00;;;;;7.35;47.87;102735.53;146634;655;46029;-75
2024/01/31 05:33:01;;;;;;;;;;;;;;;;;;;;;
2024/01/31 05:36:22;;;;;;;;;5.50;4.25;;;;;4.67;47.78;102258.62;146633;576;46027;-77
2024/01/31 05:39:43;;;;;;;;;11.75;9.75;;;;;7.37;47.99;102727.94;146632;569;45016;-67
2024/01/31 05:42:51;;;;;;;;;13.50;10.50;;;;;7.39;47.83;102734.16;146633;601;45020;-68
2024/01/31 05:45:47;;;;;;;;;8.00;7.00;;;;;7.37;48.39;102734.00;146628;598;46012;-68
2024/01/31 05:49:04;;;;;;;;;;;;;;;;;;;;;
2024/01/31 05:52:29;;;;;;;;;;;;;;;;;;;;;
2024/01/31 05:55:37;;;;;;;;;6.25;6.00;;;;;7.38;48.95;102743.56;146616;579;46021;-70
2024/01/31 05:58:33;;;;;;;;;7.50;6.00;;;;;7.36;48.30;102744.19;146617;665;46012;-69
2024/01/31 06:01:44;;;;;;;;;7.75;6.50;;;;;7.39;48.81;102758.28;146621;569;46020;-71
2024/01/31 06:04:47;;;;;;;;;6.00;5.50;;;;;7.40;48.12;102748.87;146616;622;47014;-68
2024/01/31 06:07:43;;;;;;;;;10.75;8.75;;;;;7.44;48.59;102752.66;146622;602;46010;-68
2024/01/31 06:11:08;;;;;;;;;13.50;12.50;;;;;7.49;48.78;102749.75;146617;630;46012;-71
2024/01/31 06:14:15;;;;;;;;;11.00;11.00;;;;;7.50;48.94;102753.22;146608;586;46023;-72
2024/01/31 06:17:14;;;;;;;;;7.25;7.25;;;;;7.47;48.83;102742.63;146617;629;46012;-71
2024/01/31 06:20:22;;;;;;;;;10.25;9.00;;;;;5.88;48.52;102467.69;146621;592;46020;-69
2024/01/31 06:23:23;;;;;;;;;13.00;12.25;;;;;7.44;48.68;102757.81;146617;604;46016;-69
2024/01/31 06:26:45;;;;;;;;;7.00;5.00;;;;;7.46;47.98;102766.63;146614;612;46010;-70
2024/01/31 06:29:42;;;;;;;;;5.75;5.75;;;;;7.47;47.87;102765.84;146618;575;46014;-69
2024/01/31 06:32:47;;;;;;;;;10.00;7.75;;;;;7.50;48.16;102763.56;146616;599;47055;-70
2024/01/31 06:35:50;;;;;;;;;;;;;;;;;;;;;
2024/01/31 06:38:58;;;;;;;;;4.00;4.00;;;;;7.58;47.45;102766.13;146619;591;47022;-71
2024/01/31 06:42:02;;;;;;;;;21.50;17.75;;;;;7.62;47.26;102770.81;146616;574;46012;-70
2024/01/31 06:45:09;;;;;;;;;11.25;10.75;;;;;7.66;47.63;102778.84;146610;569;46020;-69
2024/01/31 06:48:11;;;;;;;;;13.50;13.25;;;;;7.71;47.19;102775.94;146631;602;45014;-68
2024/01/31 06:51:11;;;;;;;;;21.75;16.25;;;;;7.76;46.89;102772.13;146635;639;45020;-69
2024/01/31 06:54:03;;;;;;;;;11.00;10.00;;;;;7.83;47.04;102768.47;146632;596;46012;-70
2024/01/31 06:57:00;;;;;;;;;17.75;15.50;;;;;7.93;46.43;102778.00;146633;571;45011;-71
2024/01/31 06:59:54;;;;;;;;;38.75;34.25;;;;;8.12;47.33;102776.38;146630;598;45916;-70
2024/01/31 07:02:56;;;;;;;;;27.00;25.25;;;;;8.65;45.54;102767.53;146636;564;45047;-69
2024/01/31 07:05:53;;;;;;;;;20.00;18.00;;;;;9.09;43.06;102778.41;146629;563;46012;-71
2024/01/31 07:08:56;;;;;;;;;37.75;31.75;;;;;9.17;43.01;102777.44;146633;590;46010;-68
2024/01/31 07:11:56;;;;;;;;;19.00;15.75;;;;;9.37;43.16;102775.69;146629;570;46016;-72
2024/01/31 07:15:05;;;;;;;;;26.75;20.75;;;;;9.47;43.27;102783.53;146632;634;46010;-68
2024/01/31 07:18:18;;;;;;;;;9.75;6.75;;;;;9.67;41.63;102793.94;146634;604;46016;-67
2024/01/31 07:21:35;;;;;;;;;6.75;6.00;;;;;9.76;42.75;102780.91;146635;578;46010;-67
2024/01/31 07:24:50;;;;;;;;;8.75;6.75;;;;;9.86;42.77;102787.78;146630;581;46013;-68
2024/01/31 07:27:44;;;;;;;;;9.50;8.00;;;;;10.21;43.11;102779.53;146623;598;47010;-69
2024/01/31 07:30:52;;;;;;;;;10.00;8.00;;;;;10.59;41.31;102791.53;146631;569;46014;-67
2024/01/31 07:33:51;;;;;;;;;8.75;7.50;;;;;10.89;40.59;102792.25;146635;571;45020;-68
2024/01/31 07:36:55;;;;;;;;;7.00;6.00;;;;;11.10;39.66;102801.81;146631;631;46016;-68
2024/01/31 07:39:56;;;;;;;;;9.25;9.00;;;;;11.32;39.91;102800.97;146633;581;46010;-68
2024/01/31 07:42:49;;;;;;;;;0.75;0.50;;;;;11.47;39.17;102798.72;146628;593;45914;-69
2024/01/31 07:45:50;;;;;;;;;9.50;7.75;;;;;11.56;38.75;102792.56;146632;678;45013;-68
2024/01/31 07:48:45;;;;;;;;;6.00;4.25;;;;;11.73;38.77;102800.81;146616;591;47012;-68
2024/01/31 07:51:52;;;;;;;;;10.50;9.50;;;;;11.85;40.00;102791.41;146618;582;46010;-69
2024/01/31 07:54:54;;;;;;;;;6.75;4.25;;;;;11.85;36.08;102790.50;146613;628;47017;-69
2024/01/31 07:57:53;;;;;;;;;9.25;8.50;;;;;11.71;37.53;102789.37;146618;570;46020;-68
2024/01/31 08:01:15;;;;;;;;;14.00;11.75;;;;;11.71;40.44;102791.97;146616;598;46033;-68
2024/01/31 08:04:16;;;;;;;;;4.25;4.00;;;;;11.82;38.60;102793.72;146617;608;46021;-67
2024/01/31 08:07:16;;;;;;;;;5.75;5.00;;;;;11.84;38.39;102793.84;146614;565;46016;-68
2024/01/31 08:10:24;;;;;;;;;9.75;9.00;;;;;11.90;39.31;102789.16;146620;581;46027;-68
2024/01/31 08:13:25;;;;;;;;;34.25;29.25;;;;;12.06;39.24;102781.81;146615;566;46016;-67
2024/01/31 08:16:39;;;;;;;;;63.25;47.75;;;;;12.28;38.05;102778.25;146601;692;47011;-68
2024/01/31 08:20:13;;;;;;;;;;;;;;;;;;;;;
2024/01/31 08:23:15;;;;;;;;;;;;;;;;;;;;;
2024/01/31 08:26:39;;;;;;;;;17.00;15.75;;;;;12.47;38.36;102784.97;146615;625;46016;-68
2024/01/31 08:29:41;;;;;;;;;50.25;38.00;;;;;12.55;37.39;102775.13;146618;718;47010;-69
2024/01/31 08:32:46;;;;;;;;;5.75;5.75;;;;;12.64;38.65;102774.94;146612;613;46016;-67
2024/01/31 08:35:46;;;;;;;;;17.00;16.00;;;;;12.73;38.25;102774.72;146619;570;46020;-68
2024/01/31 08:39:14;;;;;;;;;;;;;;;;;;;;;
2024/01/31 08:42:28;;;;;;;;;4.25;3.75;;;;;12.67;38.90;102776.06;146615;563;46020;-68
2024/01/31 08:45:26;;;;;;;;;13.00;11.00;;;;;12.79;38.76;102775.19;146616;630;46012;-67
2024/01/31 08:48:29;;;;;;;;;12.25;10.75;;;;;12.92;38.32;102765.78;146612;595;46010;-67
2024/01/31 08:51:33;;;;;;;;;14.50;13.25;;;;;12.85;37.56;102770.44;146608;596;46016;-68
2024/01/31 08:54:28;;;;;;;;;8.75;7.00;;;;;12.56;38.31;102755.25;146613;629;46020;-66
2024/01/31 08:57:33;;;;;;;;;12.75;10.50;;;;;12.32;40.02;102759.50;146616;591;47016;-67
2024/01/31 09:00:30;;;;;;;;;5.25;5.25;;;;;12.07;38.57;102770.59;146615;578;46020;-67
2024/01/31 09:03:32;;;;;;;;;5.75;5.00;;;;;11.74;39.30;102779.22;146617;602;46016;-67
2024/01/31 09:06:32;;;;;;;;;6.50;6.00;;;;;11.48;39.42;102772.84;146619;637;46020;-66
2024/01/31 09:09:40;;;;;;;;;;;;;;;;;;;;;
2024/01/31 09:12:35;;;;;;;;;5.75;5.75;;;;;10.93;39.74;102757.06;146614;603;46010;-68
2024/01/31 09:15:33;;;;;;;;;15.00;12.75;;;;;10.76;41.42;102766.97;146619;581;46017;-66
2024/01/31 09:18:33;;;;;;;;;8.00;7.75;;;;;10.64;40.52;102764.28;146611;624;47010;-67
2024/01/31 09:21:35;;;;;;;;;7.50;7.25;;;;;10.55;41.95;102757.41;146617;569;46014;-68
2024/01/31 09:24:45;;;;;;;;;11.25;11.25;;;;;10.49;42.19;102754.28;146620;588;46020;-68
2024/01/31 09:27:41;;;;;;;;;6.00;6.00;;;;;10.45;42.63;102745.34;146612;639;47012;-69
2024/01/31 09:30:52;;;;;;;;;16.50;13.75;;;;;10.47;41.55;102740.31;146619;754;46029;-69
2024/01/31 09:33:49;;;;;;;;;11.00;8.50;;;;;10.43;40.43;102752.09;146609;569;47014;-68
2024/01/31 09:36:59;;;;;;;;;25.25;24.00;;;;;10.38;42.51;102737.84;146621;571;46010;-66
2024/01/31 09:40:08;;;;;;;;;26.00;24.25;;;;;10.54;42.03;102737.44;146609;602;46016;-67
2024/01/31 09:43:05;;;;;;;;;25.75;23.50;;;;;10.73;40.84;102742.47;146611;569;46029;-68
2024/01/31 09:46:11;;;;;;;;;33.00;30.25;;;;;10.75;41.07;102743.53;146609;618;47012;-68
2024/01/31 09:49:14;;;;;;;;;;;;;;;;;;;;;
2024/01/31 09:52:24;;;;;;;;;13.00;12.75;;;;;10.91;41.16;102732.72;146606;586;47912;-67
2024/01/31 09:55:32;;;;;;;;;7.00;7.00;;;;;11.19;41.63;102720.28;146614;574;46021;-68
2024/01/31 09:58:26;;;;;;;;;14.75;11.75;;;;;9.66;40.45;102403.63;146614;606;47016;-68
2024/01/31 10:01:24;;;;;;;;;67.50;52.50;;;;;11.56;38.97;102708.53;146617;564;47021;-67
2024/01/31 10:04:31;;;;;;;;;45.75;37.25;;;;;11.70;40.41;102709.59;146611;621;46016;-67
2024/01/31 10:07:40;;;;;;;;;17.00;16.00;;;;;12.03;40.92;102706.16;146611;570;46012;-67
2024/01/31 10:10:53;;;;;;;;;32.25;29.25;;;;;12.35;40.56;102697.28;146613;573;47012;-66
2024/01/31 10:14:06;;;;;;;;;16.75;15.25;;;;;12.60;39.20;102695.72;146614;577;46020;-68
2024/01/31 10:17:04;;;;;;;;;34.75;27.50;;;;;12.85;38.12;102687.13;146610;571;46016;-67
2024/01/31 10:20:23;;;;;;;;;7.50;7.50;;;;;13.06;38.97;102687.81;146607;643;46010;-67
2024/01/31 10:23:50;;;;;;;;;8.75;7.00;;;;;13.22;37.55;102679.38;146617;576;46014;-68
2024/01/31 10:27:01;;;;;;;;;11.50;9.50;;;;;13.32;37.12;102664.53;146621;577;46020;-70
2024/01/31 10:29:59;;;;;;;;;5.00;4.00;;;;;13.44;34.42;102661.91;146619;646;46016;-68
2024/01/31 10:33:00;;;;;;;;;2.25;2.25;;;;;13.55;35.99;102671.41;146624;598;46010;-67
2024/01/31 10:36:10;;;;;;;;;1.00;1.00;;;;;13.61;35.22;102673.50;146619;666;47913;-67
2024/01/31 10:39:37;;;;;;;;;0.00;0.00;;;;;13.75;34.53;102666.66;146621;602;46012;-69
2024/01/31 10:42:47;;;;;;;;;1.25;0.00;;;;;13.79;32.38;102655.62;146615;574;46016;-69
2024/01/31 10:45:54;;;;;;;;;2.00;2.00;;;;;13.76;34.91;102647.59;146619;575;46010;-68
2024/01/31 10:48:49;;;;;;;;;3.00;2.00;;;;;13.82;35.53;102650.63;146614;571;48012;-69
2024/01/31 10:52:07;;;;;;;;;5.00;4.00;;;;;11.30;39.19;102205.22;146612;597;47010;-67
2024/01/31 10:55:33;;;;;;;;;6.25;5.75;;;;;11.20;38.47;102214.06;146617;641;46014;-67
2024/01/31 10:58:40;;;;;;;;;4.25;4.25;;;;;13.27;37.41;102626.84;146621;614;46010;-66
2024/01/31 11:01:41;;;;;;;;;3.25;3.25;;;;;13.20;38.12;102619.34;146615;592;46016;-68
2024/01/31 11:04:42;;;;;;;;;21.00;17.00;;;;;13.10;36.07;102622.09;146620;602;46020;-68
2024/01/31 11:07:35;;;;;;;;;10.25;8.50;;;;;12.80;37.47;102628.59;146618;566;46012;-68
2024/01/31 11:10:48;;;;;;;;;18.50;15.75;;;;;12.61;38.89;102623.75;146619;577;47010;-68
2024/01/31 11:14:23;;;;;;;;;12.00;11.00;;;;;12.54;37.98;102616.31;146611;600;47012;-67
2024/01/31 11:17:39;;;;;;;;;4.25;4.25;;;;;10.10;39.54;102201.53;146618;653;47010;-67
2024/01/31 11:20:42;;;;;;;;;10.25;10.00;;;;;12.24;37.62;102610.63;146612;580;47909;-68
2024/01/31 11:23:41;;;;;;;;;6.75;6.75;;;;;11.95;37.74;102617.16;146605;577;47012;-67
2024/01/31 11:26:48;;;;;;;;;11.50;8.75;;;;;11.64;37.76;102606.09;146616;635;46016;-68
2024/01/31 11:29:46;;;;;;;;;10.00;9.25;;;;;11.37;38.08;102617.88;146622;602;46010;-67
2024/01/31 11:32:53;;;;;;;;;10.75;9.00;;;;;11.15;37.69;102606.56;146616;588;47012;-68
2024/01/31 11:35:52;;;;;;;;;5.00;5.00;;;;;10.99;38.35;102596.66;146622;564;46011;-67
2024/01/31 11:38:56;;;;;;;;;10.75;10.00;;;;;10.85;39.34;102599.06;146616;614;48016;-68
2024/01/31 11:41:54;;;;;;;;;6.75;6.75;;;;;10.76;39.16;102595.72;146619;595;45020;-68
2024/01/31 11:44:59;;;;;;;;;6.75;4.00;;;;;10.71;39.06;102585.75;146618;666;46017;-69
2024/01/31 11:48:12;;;;;;;;;7.00;7.00;;;;;8.15;39.78;102111.69;146635;594;45033;-68
2024/01/31 11:51:16;;;;;;;;;6.75;5.75;;;;;11.11;41.29;102558.66;146622;631;46914;-69
2024/01/31 11:54:29;;;;;;;;;8.00;7.50;;;;;11.69;40.14;102560.56;146630;565;45030;-68
2024/01/31 11:57:31;;;;;;;;;7.00;6.00;;;;;12.15;38.18;102556.25;146631;564;46010;-68
2024/01/31 12:00:31;;;;;;;;;6.00;6.00;;;;;12.51;37.90;102548.44;146632;608;46020;-68
2024/01/31 12:03:29;;;;;;;;;3.50;3.50;;;;;12.71;37.16;102537.78;146632;571;46913;-70
2024/01/31 12:06:31;;;;;;;;;10.50;9.25;;;;;12.65;36.52;102522.63;146635;565;45021;-69
2024/01/31 12:09:30;;;;;;;;;9.50;9.25;;;;;12.70;37.00;102531.63;146632;614;45016;-68
2024/01/31 12:12:26;;;;;;;;;21.25;17.75;;;;;12.97;36.82;102542.22;146631;631;47010;-66
2024/01/31 12:15:22;;;;;;;;;2.00;2.00;;;;;13.15;34.93;102527.88;146632;642;45914;-68
2024/01/31 12:18:28;;;;;;;;;9.00;8.25;;;;;13.30;35.61;102511.50;146634;580;46010;-68
2024/01/31 12:21:33;;;;;;;;;21.75;21.25;;;;;13.41;36.04;102507.94;146632;606;45017;-68
2024/01/31 12:24:32;;;;;;;;;3.75;2.50;;;;;13.50;37.00;102511.19;146627;669;45020;-68
2024/01/31 12:27:47;;;;;;;;;7.25;5.25;;;;;13.65;34.76;102507.81;146631;599;46912;-68
2024/01/31 12:30:42;;;;;;;;;17.25;16.50;;;;;13.62;33.68;102503.28;146634;631;45020;-68
2024/01/31 12:33:38;;;;;;;;;6.50;5.50;;;;;13.66;34.84;102514.81;146635;607;45912;-67
2024/01/31 12:36:39;;;;;;;;;8.50;8.50;;;;;13.70;34.81;102504.69;146636;572;45021;-67
2024/01/31 12:39:40;;;;;;;;;10.50;10.50;;;;;13.80;36.28;102500.97;146628;602;46016;-67
2024/01/31 12:42:41;;;;;;;;;4.50;4.00;;;;;13.91;35.67;102492.19;146637;653;45021;-67
2024/01/31 12:45:46;;;;;;;;;9.50;6.75;;;;;13.96;34.94;102501.22;146629;566;45020;-67
2024/01/31 12:48:45;;;;;;;;;4.25;4.00;;;;;13.90;34.76;102494.69;146619;570;47010;-68
2024/01/31 12:51:46;;;;;;;;;10.50;9.00;;;;;13.78;35.00;102494.78;146607;642;49912;-68
2024/01/31 12:54:50;;;;;;;;;4.00;4.00;;;;;10.93;35.81;102014.81;146612;564;46020;-69
2024/01/31 12:57:52;;;;;;;;;8.00;8.00;;;;;13.68;35.78;102482.84;146611;612;47016;-67
2024/01/31 13:00:51;;;;;;;;;10.00;8.25;;;;;13.58;36.50;102486.53;146615;569;47012;-67
2024/01/31 13:03:51;;;;;;;;;10.00;8.00;;;;;13.64;36.12;102475.59;146614;688;46016;-69
2024/01/31 13:06:50;;;;;;;;;12.25;12.00;;;;;13.76;35.74;102492.06;146619;592;46020;-68
2024/01/31 13:10:02;;;;;;;;;17.00;14.00;;;;;14.01;36.57;102494.56;146603;657;49012;-68
2024/01/31 13:13:13;;;;;;;;;13.50;12.00;;;;;14.29;35.08;102497.28;146611;575;47010;-69
2024/01/31 13:16:08;;;;;;;;;12.50;12.50;;;;;14.36;35.12;102489.84;146609;581;47012;-69
2024/01/31 13:19:04;;;;;;;;;12.25;9.75;;;;;14.22;35.02;102491.56;146617;710;47010;-68
2024/01/31 13:22:11;;;;;;;;;10.50;10.50;;;;;14.08;35.32;102501.09;146615;600;47016;-68
2024/01/31 13:25:12;;;;;;;;;14.50;12.75;;;;;14.04;36.57;102510.44;146605;563;47020;-68
2024/01/31 13:28:19;;;;;;;;;13.75;10.25;;;;;14.05;35.97;102509.66;146611;615;47014;-69
2024/01/31 13:31:27;;;;;;;;;12.50;11.50;;;;;14.15;36.34;102512.88;146613;624;47010;-68
2024/01/31 13:34:20;;;;;;;;;14.75;14.00;;;;;14.26;34.18;102515.34;146614;581;47012;-68
2024/01/31 13:37:25;;;;;;;;;10.50;10.50;;;;;14.32;35.33;102504.41;146612;579;47020;-69
2024/01/31 13:40:26;;;;;;;;;12.25;10.75;;;;;14.44;35.55;102507.78;146612;618;46031;-69
2024/01/31 13:43:44;;;;;;;;;11.50;8.50;;;;;14.41;34.77;102488.44;146613;572;47010;-69
2024/01/31 13:46:41;;;;;;;;;10.00;10.00;;;;;14.39;35.50;102508.31;146614;630;46016;-68
2024/01/31 13:49:39;;;;;;;;;13.50;11.75;;;;;14.48;35.84;102514.13;146614;586;46020;-68
2024/01/31 13:52:42;;;;;;;;;14.25;12.75;;;;;14.48;35.40;102508.88;146615;603;47012;-69
2024/01/31 13:55:48;;;;;;;;;14.75;12.00;;;;;14.48;35.50;102506.28;146608;591;46020;-68
2024/01/31 13:58:51;;;;;;;;;19.75;19.25;;;;;14.60;35.28;102511.41;146611;581;46012;-67
2024/01/31 14:02:02;;;;;;;;;26.00;22.75;;;;;14.75;36.77;102507.16;146613;669;46029;-69
2024/01/31 14:05:06;;;;;;;;;16.50;15.50;;;;;14.85;35.76;102503.41;146609;599;46915;-68
2024/01/31 14:08:17;;;;;;;;;20.25;17.50;;;;;14.99;35.63;102500.84;146612;597;47010;-68
2024/01/31 14:11:19;;;;;;;;;25.75;23.50;;;;;15.11;35.03;102512.84;146610;574;46016;-69
2024/01/31 14:14:30;;;;;;;;;19.25;17.75;;;;;15.22;35.74;102559.75;146606;578;46020;-70
2024/01/31 14:17:38;;;;;;;;;13.25;12.25;;;;;13.06;36.31;102144.41;146612;612;47016;-69
2024/01/31 14:20:44;;;;;;;;;;;;;;;;;;;;;
2024/01/31 14:23:46;;;;;;;;;13.00;12.25;;;;;15.12;34.86;102518.19;146609;582;46016;-68
2024/01/31 14:26:51;;;;;;;;;;;;;;;;;;;;;
2024/01/31 14:29:47;;;;;;;;;22.00;20.00;;;;;14.71;32.84;102513.91;146612;619;46018;-68
2024/01/31 14:32:55;;;;;;;;;8.75;8.00;;;;;14.37;33.62;102521.25;146612;633;46010;-68
2024/01/31 14:35:53;;;;;;;;;20.50;19.00;;;;;13.99;35.41;102526.59;146615;575;46016;-68
2024/01/31 14:39:03;;;;;;;;;16.25;14.00;;;;;13.73;35.22;102519.62;146612;625;46020;-69
2024/01/31 14:42:11;;;;;;;;;20.00;18.75;;;;;13.53;36.61;102514.00;146609;578;46035;-68
2024/01/31 14:45:04;;;;;;;;;11.25;11.25;;;;;13.37;35.45;102525.06;146610;602;49010;-69
2024/01/31 14:48:17;;;;;;;;;15.25;15.25;;;;;13.25;36.84;102526.84;146633;587;45917;-69